sensor_id;sensor_type;location;lat;lon;timestamp;P1;durP1;ratioP1;P2;durP2;ratioP2
7432;SDS011;32233;49.500;7.764;2023-01-24T00:00:41;15.70;;;9.23;;
7432;SDS011;32233;49.500;7.764;2023-01-24T00:03:08;17.87;;;9.30;;
7432;SDS011;32233;49.500;7.764;2023-01-24T00:05:39;16.50;;;9.77;;
7432;SDS011;32233;49.500;7.764;2023-01-24T00:08:06;14.07;;;9.07;;
7432;SDS011;32233;49.500;7.764;2023-01-24T00:10:33;15.67;;;9.03;;
7432;SDS011;32233;49.500;7.764;2023-01-24T00:13:00;16.20;;;9.47;;
7432;SDS011;32233;49.500;7.764;2023-01-24T00:15:27;17.27;;;9.70;;
7432;SDS011;32233;49.500;7.764;2023-01-24T00:17:53;16.20;;;8.93;;
7432;SDS011;32233;49.500;7.764;2023-01-24T00:20:20;14.37;;;9.03;;
7432;SDS011;32233;49.500;7.764;2023-01-24T00:22:46;15.90;;;9.37;;
7432;SDS011;32233;49.500;7.764;2023-01-24T00:25:13;15.30;;;9.03;;
7432;SDS011;32233;49.500;7.764;2023-01-24T00:27:40;14.83;;;9.23;;
7432;SDS011;32233;49.500;7.764;2023-01-24T00:30:06;14.40;;;8.00;;
7432;SDS011;32233;49.500;7.764;2023-01-24T00:32:35;15.97;;;8.83;;
7432;SDS011;32233;49.500;7.764;2023-01-24T00:35:02;15.03;;;9.30;;
7432;SDS011;32233;49.500;7.764;2023-01-24T00:37:28;14.50;;;9.00;;
7432;SDS011;32233;49.500;7.764;2023-01-24T00:39:55;15.90;;;9.40;;
7432;SDS011;32233;49.500;7.764;2023-01-24T00:42:21;15.20;;;8.70;;
7432;SDS011;32233;49.500;7.764;2023-01-24T00:44:48;15.63;;;8.93;;
7432;SDS011;32233;49.500;7.764;2023-01-24T00:47:15;15.80;;;9.37;;
7432;SDS011;32233;49.500;7.764;2023-01-24T00:49:42;16.67;;;9.63;;
7432;SDS011;32233;49.500;7.764;2023-01-24T00:52:09;14.43;;;8.87;;
7432;SDS011;32233;49.500;7.764;2023-01-24T00:54:36;13.47;;;8.27;;
7432;SDS011;32233;49.500;7.764;2023-01-24T00:57:02;16.27;;;9.57;;
7432;SDS011;32233;49.500;7.764;2023-01-24T00:59:29;14.60;;;8.50;;
7432;SDS011;32233;49.500;7.764;2023-01-24T01:01:56;14.77;;;8.90;;
7432;SDS011;32233;49.500;7.764;2023-01-24T01:04:24;14.70;;;9.07;;
7432;SDS011;32233;49.500;7.764;2023-01-24T01:06:52;13.73;;;8.40;;
7432;SDS011;32233;49.500;7.764;2023-01-24T01:09:18;15.17;;;9.30;;
7432;SDS011;32233;49.500;7.764;2023-01-24T01:11:45;15.17;;;8.67;;
7432;SDS011;32233;49.500;7.764;2023-01-24T01:14:11;14.80;;;8.70;;
7432;SDS011;32233;49.500;7.764;2023-01-24T01:16:40;15.63;;;9.00;;
7432;SDS011;32233;49.500;7.764;2023-01-24T01:19:08;15.30;;;8.67;;
7432;SDS011;32233;49.500;7.764;2023-01-24T01:21:34;13.93;;;8.93;;
7432;SDS011;32233;49.500;7.764;2023-01-24T01:24:01;14.73;;;8.97;;
7432;SDS011;32233;49.500;7.764;2023-01-24T01:26:28;15.40;;;9.40;;
7432;SDS011;32233;49.500;7.764;2023-01-24T01:28:55;14.63;;;8.90;;
7432;SDS011;32233;49.500;7.764;2023-01-24T01:31:21;14.13;;;8.63;;
7432;SDS011;32233;49.500;7.764;2023-01-24T01:33:48;15.53;;;7.97;;
7432;SDS011;32233;49.500;7.764;2023-01-24T01:36:14;12.83;;;8.23;;
7432;SDS011;32233;49.500;7.764;2023-01-24T01:38:41;13.87;;;9.00;;
7432;SDS011;32233;49.500;7.764;2023-01-24T01:41:08;12.00;;;8.03;;
7432;SDS011;32233;49.500;7.764;2023-01-24T01:43:36;13.73;;;8.97;;
7432;SDS011;32233;49.500;7.764;2023-01-24T01:46:24;14.93;;;9.00;;
7432;SDS011;32233;49.500;7.764;2023-01-24T01:48:54;15.53;;;9.03;;
7432;SDS011;32233;49.500;7.764;2023-01-24T01:51:27;14.63;;;9.30;;
7432;SDS011;32233;49.500;7.764;2023-01-24T01:54:04;15.10;;;9.23;;
7432;SDS011;32233;49.500;7.764;2023-01-24T01:56:45;16.03;;;9.27;;
7432;SDS011;32233;49.500;7.764;2023-01-24T01:59:17;13.17;;;8.27;;
7432;SDS011;32233;49.500;7.764;2023-01-24T02:01:48;14.80;;;9.23;;
7432;SDS011;32233;49.500;7.764;2023-01-24T02:04:22;15.77;;;9.40;;
7432;SDS011;32233;49.500;7.764;2023-01-24T02:06:59;17.27;;;9.80;;
7432;SDS011;32233;49.500;7.764;2023-01-24T02:09:34;13.67;;;8.60;;
7432;SDS011;32233;49.500;7.764;2023-01-24T02:12:19;14.27;;;8.83;;
7432;SDS011;32233;49.500;7.764;2023-01-24T02:14:50;15.67;;;8.87;;
7432;SDS011;32233;49.500;7.764;2023-01-24T02:17:38;14.87;;;8.50;;
7432;SDS011;32233;49.500;7.764;2023-01-24T02:20:11;13.33;;;9.03;;
7432;SDS011;32233;49.500;7.764;2023-01-24T02:28:28;13.53;;;8.53;;
7432;SDS011;32233;49.500;7.764;2023-01-24T02:30:56;17.33;;;9.27;;
7432;SDS011;32233;49.500;7.764;2023-01-24T02:33:24;15.70;;;9.37;;
7432;SDS011;32233;49.500;7.764;2023-01-24T02:35:51;15.60;;;9.73;;
7432;SDS011;32233;49.500;7.764;2023-01-24T02:38:32;17.10;;;10.00;;
7432;SDS011;32233;49.500;7.764;2023-01-24T02:40:59;15.63;;;9.60;;
7432;SDS011;32233;49.500;7.764;2023-01-24T02:43:34;15.93;;;9.90;;
7432;SDS011;32233;49.500;7.764;2023-01-24T02:46:05;18.20;;;9.33;;
7432;SDS011;32233;49.500;7.764;2023-01-24T02:48:31;16.30;;;9.70;;
7432;SDS011;32233;49.500;7.764;2023-01-24T02:50:58;17.53;;;10.70;;
7432;SDS011;32233;49.500;7.764;2023-01-24T02:53:43;17.47;;;9.90;;
7432;SDS011;32233;49.500;7.764;2023-01-24T02:56:10;18.27;;;10.60;;
7432;SDS011;32233;49.500;7.764;2023-01-24T02:58:57;16.70;;;10.00;;
7432;SDS011;32233;49.500;7.764;2023-01-24T03:01:24;18.50;;;10.00;;
7432;SDS011;32233;49.500;7.764;2023-01-24T03:03:53;17.80;;;9.47;;
7432;SDS011;32233;49.500;7.764;2023-01-24T03:06:22;18.10;;;10.07;;
7432;SDS011;32233;49.500;7.764;2023-01-24T03:08:49;17.90;;;10.20;;
7432;SDS011;32233;49.500;7.764;2023-01-24T03:11:25;18.03;;;10.77;;
7432;SDS011;32233;49.500;7.764;2023-01-24T03:13:52;18.50;;;10.30;;
7432;SDS011;32233;49.500;7.764;2023-01-24T03:16:38;16.97;;;10.10;;
7432;SDS011;32233;49.500;7.764;2023-01-24T03:19:24;20.00;;;10.97;;
7432;SDS011;32233;49.500;7.764;2023-01-24T03:22:09;19.10;;;10.73;;
7432;SDS011;32233;49.500;7.764;2023-01-24T03:24:54;19.13;;;10.33;;
7432;SDS011;32233;49.500;7.764;2023-01-24T03:27:39;17.60;;;10.27;;
7432;SDS011;32233;49.500;7.764;2023-01-24T03:30:29;20.50;;;10.70;;
7432;SDS011;32233;49.500;7.764;2023-01-24T03:33:14;17.70;;;10.73;;
7432;SDS011;32233;49.500;7.764;2023-01-24T03:36:00;18.20;;;10.80;;
7432;SDS011;32233;49.500;7.764;2023-01-24T03:38:31;16.83;;;10.03;;
7432;SDS011;32233;49.500;7.764;2023-01-24T03:41:18;20.80;;;10.73;;
7432;SDS011;32233;49.500;7.764;2023-01-24T03:43:46;19.27;;;10.40;;
7432;SDS011;32233;49.500;7.764;2023-01-24T03:46:13;19.30;;;10.90;;
7432;SDS011;32233;49.500;7.764;2023-01-24T03:48:50;20.27;;;11.30;;
7432;SDS011;32233;49.500;7.764;2023-01-24T03:51:21;17.60;;;10.57;;
7432;SDS011;32233;49.500;7.764;2023-01-24T03:54:06;18.17;;;10.50;;
7432;SDS011;32233;49.500;7.764;2023-01-24T03:56:44;20.43;;;10.97;;
7432;SDS011;32233;49.500;7.764;2023-01-24T03:59:10;19.40;;;11.30;;
7432;SDS011;32233;49.500;7.764;2023-01-24T04:01:38;23.07;;;11.40;;
7432;SDS011;32233;49.500;7.764;2023-01-24T04:04:15;22.23;;;11.47;;
7432;SDS011;32233;49.500;7.764;2023-01-24T04:06:42;19.90;;;11.03;;
7432;SDS011;32233;49.500;7.764;2023-01-24T04:09:11;19.93;;;11.57;;
7432;SDS011;32233;49.500;7.764;2023-01-24T04:11:38;20.17;;;11.30;;
7432;SDS011;32233;49.500;7.764;2023-01-24T04:14:24;20.73;;;11.30;;
7432;SDS011;32233;49.500;7.764;2023-01-24T04:16:58;19.93;;;10.47;;
7432;SDS011;32233;49.500;7.764;2023-01-24T04:19:30;18.83;;;10.47;;
7432;SDS011;32233;49.500;7.764;2023-01-24T04:21:57;20.37;;;10.40;;
7432;SDS011;32233;49.500;7.764;2023-01-24T04:24:24;20.93;;;11.83;;
7432;SDS011;32233;49.500;7.764;2023-01-24T04:26:51;19.53;;;11.33;;
7432;SDS011;32233;49.500;7.764;2023-01-24T04:29:24;19.93;;;11.40;;
7432;SDS011;32233;49.500;7.764;2023-01-24T04:31:54;17.90;;;10.60;;
7432;SDS011;32233;49.500;7.764;2023-01-24T04:34:37;19.80;;;11.17;;
7432;SDS011;32233;49.500;7.764;2023-01-24T04:37:08;18.70;;;10.50;;
7432;SDS011;32233;49.500;7.764;2023-01-24T04:39:35;18.30;;;10.83;;
7432;SDS011;32233;49.500;7.764;2023-01-24T04:42:09;21.27;;;11.80;;
7432;SDS011;32233;49.500;7.764;2023-01-24T04:44:38;19.57;;;10.87;;
7432;SDS011;32233;49.500;7.764;2023-01-24T04:47:07;18.90;;;11.23;;
7432;SDS011;32233;49.500;7.764;2023-01-24T04:49:34;19.60;;;10.53;;
7432;SDS011;32233;49.500;7.764;2023-01-24T04:52:02;20.90;;;11.27;;
7432;SDS011;32233;49.500;7.764;2023-01-24T04:54:41;17.60;;;10.33;;
7432;SDS011;32233;49.500;7.764;2023-01-24T04:57:09;17.10;;;9.87;;
7432;SDS011;32233;49.500;7.764;2023-01-24T04:59:40;18.80;;;10.20;;
7432;SDS011;32233;49.500;7.764;2023-01-24T05:02:09;18.70;;;10.47;;
7432;SDS011;32233;49.500;7.764;2023-01-24T05:04:41;17.27;;;9.80;;
7432;SDS011;32233;49.500;7.764;2023-01-24T05:07:09;17.90;;;10.20;;
7432;SDS011;32233;49.500;7.764;2023-01-24T05:09:37;18.53;;;10.47;;
7432;SDS011;32233;49.500;7.764;2023-01-24T05:12:07;17.77;;;9.97;;
7432;SDS011;32233;49.500;7.764;2023-01-24T05:14:34;17.80;;;11.07;;
7432;SDS011;32233;49.500;7.764;2023-01-24T05:17:01;15.63;;;9.37;;
7432;SDS011;32233;49.500;7.764;2023-01-24T05:19:30;17.20;;;10.00;;
7432;SDS011;32233;49.500;7.764;2023-01-24T05:21:56;16.13;;;10.00;;
7432;SDS011;32233;49.500;7.764;2023-01-24T05:24:23;16.07;;;9.90;;
7432;SDS011;32233;49.500;7.764;2023-01-24T05:26:49;17.80;;;10.00;;
7432;SDS011;32233;49.500;7.764;2023-01-24T05:29:20;16.77;;;9.83;;
7432;SDS011;32233;49.500;7.764;2023-01-24T05:31:50;18.17;;;9.77;;
7432;SDS011;32233;49.500;7.764;2023-01-24T05:34:18;17.03;;;9.87;;
7432;SDS011;32233;49.500;7.764;2023-01-24T05:36:44;15.10;;;9.47;;
7432;SDS011;32233;49.500;7.764;2023-01-24T05:39:12;17.37;;;9.53;;
7432;SDS011;32233;49.500;7.764;2023-01-24T05:41:42;14.23;;;9.03;;
7432;SDS011;32233;49.500;7.764;2023-01-24T05:44:11;17.57;;;9.33;;
7432;SDS011;32233;49.500;7.764;2023-01-24T05:46:39;16.27;;;9.73;;
7432;SDS011;32233;49.500;7.764;2023-01-24T05:49:28;16.07;;;9.33;;
7432;SDS011;32233;49.500;7.764;2023-01-24T05:51:55;17.87;;;9.93;;
7432;SDS011;32233;49.500;7.764;2023-01-24T05:54:44;18.33;;;9.60;;
7432;SDS011;32233;49.500;7.764;2023-01-24T05:57:31;17.53;;;9.80;;
7432;SDS011;32233;49.500;7.764;2023-01-24T06:00:24;14.80;;;9.43;;
7432;SDS011;32233;49.500;7.764;2023-01-24T06:03:29;16.60;;;9.20;;
7432;SDS011;32233;49.500;7.764;2023-01-24T06:05:56;18.00;;;9.40;;
7432;SDS011;32233;49.500;7.764;2023-01-24T06:08:26;16.90;;;9.40;;
7432;SDS011;32233;49.500;7.764;2023-01-24T06:10:53;16.40;;;9.70;;
7432;SDS011;32233;49.500;7.764;2023-01-24T06:13:21;15.87;;;9.77;;
7432;SDS011;32233;49.500;7.764;2023-01-24T06:15:48;16.17;;;9.53;;
7432;SDS011;32233;49.500;7.764;2023-01-24T06:18:15;16.67;;;9.80;;
7432;SDS011;32233;49.500;7.764;2023-01-24T06:20:47;17.47;;;10.20;;
7432;SDS011;32233;49.500;7.764;2023-01-24T06:23:22;20.60;;;10.00;;
7432;SDS011;32233;49.500;7.764;2023-01-24T06:25:57;17.57;;;9.67;;
7432;SDS011;32233;49.500;7.764;2023-01-24T06:28:24;15.23;;;9.77;;
7432;SDS011;32233;49.500;7.764;2023-01-24T06:30:54;17.83;;;10.40;;
7432;SDS011;32233;49.500;7.764;2023-01-24T06:33:36;19.13;;;10.33;;
7432;SDS011;32233;49.500;7.764;2023-01-24T06:36:14;15.70;;;9.37;;
7432;SDS011;32233;49.500;7.764;2023-01-24T06:38:57;16.77;;;9.63;;
7432;SDS011;32233;49.500;7.764;2023-01-24T06:41:24;17.37;;;10.27;;
7432;SDS011;32233;49.500;7.764;2023-01-24T06:43:51;18.37;;;10.47;;
7432;SDS011;32233;49.500;7.764;2023-01-24T06:46:18;16.73;;;10.20;;
7432;SDS011;32233;49.500;7.764;2023-01-24T06:48:45;18.97;;;10.27;;
7432;SDS011;32233;49.500;7.764;2023-01-24T06:51:12;20.13;;;10.67;;
7432;SDS011;32233;49.500;7.764;2023-01-24T06:53:40;18.80;;;11.20;;
7432;SDS011;32233;49.500;7.764;2023-01-24T06:56:07;17.20;;;10.53;;
7432;SDS011;32233;49.500;7.764;2023-01-24T06:58:34;19.47;;;10.80;;
7432;SDS011;32233;49.500;7.764;2023-01-24T07:01:01;21.03;;;11.63;;
7432;SDS011;32233;49.500;7.764;2023-01-24T07:03:28;19.47;;;11.00;;
7432;SDS011;32233;49.500;7.764;2023-01-24T07:05:54;18.10;;;11.00;;
7432;SDS011;32233;49.500;7.764;2023-01-24T07:08:21;19.83;;;10.57;;
7432;SDS011;32233;49.500;7.764;2023-01-24T07:10:47;20.53;;;10.97;;
7432;SDS011;32233;49.500;7.764;2023-01-24T07:13:14;19.10;;;11.07;;
7432;SDS011;32233;49.500;7.764;2023-01-24T07:15:41;21.67;;;11.80;;
7432;SDS011;32233;49.500;7.764;2023-01-24T07:18:08;20.83;;;11.43;;
7432;SDS011;32233;49.500;7.764;2023-01-24T07:20:38;21.30;;;11.67;;
7432;SDS011;32233;49.500;7.764;2023-01-24T07:23:07;19.40;;;11.43;;
7432;SDS011;32233;49.500;7.764;2023-01-24T07:25:47;20.07;;;11.67;;
7432;SDS011;32233;49.500;7.764;2023-01-24T07:28:14;19.30;;;11.60;;
7432;SDS011;32233;49.500;7.764;2023-01-24T07:30:41;20.20;;;11.27;;
7432;SDS011;32233;49.500;7.764;2023-01-24T07:33:07;20.30;;;10.83;;
7432;SDS011;32233;49.500;7.764;2023-01-24T07:35:34;19.80;;;11.40;;
7432;SDS011;32233;49.500;7.764;2023-01-24T07:38:00;21.33;;;12.03;;
7432;SDS011;32233;49.500;7.764;2023-01-24T07:40:27;18.90;;;10.83;;
7432;SDS011;32233;49.500;7.764;2023-01-24T07:42:54;21.03;;;11.47;;
7432;SDS011;32233;49.500;7.764;2023-01-24T07:45:21;20.60;;;11.07;;
7432;SDS011;32233;49.500;7.764;2023-01-24T07:47:48;18.23;;;10.67;;
7432;SDS011;32233;49.500;7.764;2023-01-24T07:50:14;20.47;;;11.43;;
7432;SDS011;32233;49.500;7.764;2023-01-24T07:52:42;18.80;;;10.40;;
7432;SDS011;32233;49.500;7.764;2023-01-24T07:55:08;19.20;;;10.60;;
7432;SDS011;32233;49.500;7.764;2023-01-24T07:57:35;17.90;;;10.17;;
7432;SDS011;32233;49.500;7.764;2023-01-24T08:00:02;19.30;;;10.47;;
7432;SDS011;32233;49.500;7.764;2023-01-24T08:02:36;15.87;;;9.73;;
7432;SDS011;32233;49.500;7.764;2023-01-24T08:05:03;15.73;;;9.57;;
7432;SDS011;32233;49.500;7.764;2023-01-24T08:07:30;14.60;;;9.30;;
7432;SDS011;32233;49.500;7.764;2023-01-24T08:09:56;17.87;;;10.40;;
7432;SDS011;32233;49.500;7.764;2023-01-24T08:12:23;14.67;;;9.13;;
7432;SDS011;32233;49.500;7.764;2023-01-24T08:14:49;16.00;;;9.97;;
7432;SDS011;32233;49.500;7.764;2023-01-24T08:17:16;18.50;;;10.30;;
7432;SDS011;32233;49.500;7.764;2023-01-24T08:19:43;18.37;;;9.97;;
7432;SDS011;32233;49.500;7.764;2023-01-24T08:22:25;20.20;;;10.27;;
7432;SDS011;32233;49.500;7.764;2023-01-24T08:24:51;15.57;;;9.20;;
7432;SDS011;32233;49.500;7.764;2023-01-24T08:27:18;16.73;;;10.07;;
7432;SDS011;32233;49.500;7.764;2023-01-24T08:29:45;18.23;;;10.33;;
7432;SDS011;32233;49.500;7.764;2023-01-24T08:32:11;16.77;;;10.13;;
7432;SDS011;32233;49.500;7.764;2023-01-24T08:34:38;15.73;;;9.57;;
7432;SDS011;32233;49.500;7.764;2023-01-24T08:37:05;18.63;;;10.10;;
7432;SDS011;32233;49.500;7.764;2023-01-24T08:39:31;19.47;;;10.27;;
7432;SDS011;32233;49.500;7.764;2023-01-24T08:41:58;17.43;;;9.90;;
7432;SDS011;32233;49.500;7.764;2023-01-24T08:44:24;21.20;;;10.50;;
7432;SDS011;32233;49.500;7.764;2023-01-24T08:46:51;19.67;;;10.77;;
7432;SDS011;32233;49.500;7.764;2023-01-24T08:49:17;18.30;;;10.40;;
7432;SDS011;32233;49.500;7.764;2023-01-24T08:51:44;17.23;;;10.67;;
7432;SDS011;32233;49.500;7.764;2023-01-24T08:54:12;19.80;;;10.80;;
7432;SDS011;32233;49.500;7.764;2023-01-24T08:56:38;18.40;;;10.40;;
7432;SDS011;32233;49.500;7.764;2023-01-24T08:59:05;19.50;;;10.47;;
7432;SDS011;32233;49.500;7.764;2023-01-24T09:01:32;19.73;;;10.77;;
7432;SDS011;32233;49.500;7.764;2023-01-24T09:03:59;21.73;;;11.50;;
7432;SDS011;32233;49.500;7.764;2023-01-24T09:06:26;18.50;;;10.90;;
7432;SDS011;32233;49.500;7.764;2023-01-24T09:08:53;17.90;;;10.53;;
7432;SDS011;32233;49.500;7.764;2023-01-24T09:11:21;17.80;;;9.70;;
7432;SDS011;32233;49.500;7.764;2023-01-24T09:13:48;19.50;;;11.13;;
7432;SDS011;32233;49.500;7.764;2023-01-24T09:16:14;17.97;;;10.03;;
7432;SDS011;32233;49.500;7.764;2023-01-24T09:18:41;19.40;;;10.37;;
7432;SDS011;32233;49.500;7.764;2023-01-24T09:21:08;18.93;;;10.60;;
7432;SDS011;32233;49.500;7.764;2023-01-24T09:23:34;20.17;;;10.63;;
7432;SDS011;32233;49.500;7.764;2023-01-24T09:26:01;18.37;;;10.53;;
7432;SDS011;32233;49.500;7.764;2023-01-24T09:28:28;20.10;;;11.17;;
7432;SDS011;32233;49.500;7.764;2023-01-24T09:30:54;18.47;;;10.40;;
7432;SDS011;32233;49.500;7.764;2023-01-24T09:33:21;19.37;;;10.47;;
7432;SDS011;32233;49.500;7.764;2023-01-24T09:35:55;22.23;;;11.37;;
7432;SDS011;32233;49.500;7.764;2023-01-24T09:38:24;19.63;;;10.90;;
7432;SDS011;32233;49.500;7.764;2023-01-24T09:41:21;19.67;;;11.10;;
7432;SDS011;32233;49.500;7.764;2023-01-24T09:43:59;18.77;;;10.83;;
7432;SDS011;32233;49.500;7.764;2023-01-24T09:49:44;18.40;;;10.57;;
7432;SDS011;32233;49.500;7.764;2023-01-24T09:51:53;20.27;;;10.63;;
7432;SDS011;32233;49.500;7.764;2023-01-24T09:54:31;17.53;;;10.07;;
7432;SDS011;32233;49.500;7.764;2023-01-24T09:57:06;20.67;;;11.03;;
7432;SDS011;32233;49.500;7.764;2023-01-24T09:59:51;20.07;;;10.10;;
7432;SDS011;32233;49.500;7.764;2023-01-24T10:02:22;20.13;;;10.40;;
7432;SDS011;32233;49.500;7.764;2023-01-24T10:04:53;21.47;;;11.07;;
7432;SDS011;32233;49.500;7.764;2023-01-24T10:12:51;17.60;;;10.07;;
7432;SDS011;32233;49.500;7.764;2023-01-24T10:21:12;19.03;;;10.57;;
7432;SDS011;32233;49.500;7.764;2023-01-24T10:23:57;15.43;;;9.20;;
7432;SDS011;32233;49.500;7.764;2023-01-24T10:29:13;17.63;;;10.13;;
7432;SDS011;32233;49.500;7.764;2023-01-24T10:31:43;17.07;;;10.30;;
7432;SDS011;32233;49.500;7.764;2023-01-24T10:34:20;16.60;;;9.40;;
7432;SDS011;32233;49.500;7.764;2023-01-24T10:36:56;16.27;;;9.43;;
7432;SDS011;32233;49.500;7.764;2023-01-24T10:39:31;17.77;;;9.77;;
7432;SDS011;32233;49.500;7.764;2023-01-24T10:41:58;16.20;;;9.13;;
7432;SDS011;32233;49.500;7.764;2023-01-24T10:44:29;17.03;;;8.90;;
7432;SDS011;32233;49.500;7.764;2023-01-24T10:49:52;17.53;;;9.50;;
7432;SDS011;32233;49.500;7.764;2023-01-24T10:52:24;17.20;;;10.50;;
7432;SDS011;32233;49.500;7.764;2023-01-24T10:54:55;18.67;;;9.23;;
7432;SDS011;32233;49.500;7.764;2023-01-24T11:03:02;15.97;;;8.80;;
7432;SDS011;32233;49.500;7.764;2023-01-24T11:05:38;16.47;;;8.80;;
7432;SDS011;32233;49.500;7.764;2023-01-24T11:08:16;15.50;;;9.20;;
7432;SDS011;32233;49.500;7.764;2023-01-24T11:10:58;15.47;;;8.63;;
7432;SDS011;32233;49.500;7.764;2023-01-24T11:13:35;16.67;;;9.23;;
7432;SDS011;32233;49.500;7.764;2023-01-24T11:16:17;15.30;;;8.87;;
7432;SDS011;32233;49.500;7.764;2023-01-24T11:19:04;15.80;;;8.60;;
7432;SDS011;32233;49.500;7.764;2023-01-24T11:21:32;16.37;;;9.20;;
7432;SDS011;32233;49.500;7.764;2023-01-24T11:24:20;14.50;;;8.70;;
7432;SDS011;32233;49.500;7.764;2023-01-24T11:35:37;15.33;;;8.83;;
7432;SDS011;32233;49.500;7.764;2023-01-24T11:38:17;12.10;;;7.93;;
7432;SDS011;32233;49.500;7.764;2023-01-24T11:41:10;14.83;;;8.53;;
7432;SDS011;32233;49.500;7.764;2023-01-24T11:47:08;17.03;;;8.23;;
7432;SDS011;32233;49.500;7.764;2023-01-24T11:52:39;13.97;;;8.10;;
7432;SDS011;32233;49.500;7.764;2023-01-24T11:55:25;12.80;;;8.10;;
7432;SDS011;32233;49.500;7.764;2023-01-24T11:57:58;13.17;;;7.70;;
7432;SDS011;32233;49.500;7.764;2023-01-24T12:03:28;15.93;;;9.03;;
7432;SDS011;32233;49.500;7.764;2023-01-24T12:08:57;14.80;;;8.57;;
7432;SDS011;32233;49.500;7.764;2023-01-24T12:11:31;15.83;;;9.00;;
7432;SDS011;32233;49.500;7.764;2023-01-24T12:23:05;15.73;;;8.47;;
7432;SDS011;32233;49.500;7.764;2023-01-24T12:25:46;13.77;;;9.27;;
7432;SDS011;32233;49.500;7.764;2023-01-24T12:28:27;14.30;;;8.17;;
7432;SDS011;32233;49.500;7.764;2023-01-24T12:30:59;14.47;;;8.80;;
7432;SDS011;32233;49.500;7.764;2023-01-24T12:33:39;14.40;;;9.07;;
7432;SDS011;32233;49.500;7.764;2023-01-24T12:36:23;14.67;;;8.90;;
7432;SDS011;32233;49.500;7.764;2023-01-24T12:38:58;15.47;;;9.83;;
7432;SDS011;32233;49.500;7.764;2023-01-24T12:41:32;15.90;;;9.40;;
7432;SDS011;32233;49.500;7.764;2023-01-24T12:44:08;14.33;;;8.90;;
7432;SDS011;32233;49.500;7.764;2023-01-24T12:55:36;16.90;;;9.10;;
7432;SDS011;32233;49.500;7.764;2023-01-24T12:58:18;13.20;;;8.20;;
7432;SDS011;32233;49.500;7.764;2023-01-24T13:01:00;14.00;;;8.33;;
7432;SDS011;32233;49.500;7.764;2023-01-24T13:09:16;16.10;;;9.63;;
7432;SDS011;32233;49.500;7.764;2023-01-24T13:11:46;14.50;;;9.07;;
7432;SDS011;32233;49.500;7.764;2023-01-24T13:17:27;16.43;;;9.57;;
7432;SDS011;32233;49.500;7.764;2023-01-24T13:20:01;18.80;;;10.47;;
7432;SDS011;32233;49.500;7.764;2023-01-24T13:25:40;15.60;;;9.07;;
7432;SDS011;32233;49.500;7.764;2023-01-24T13:33:47;14.83;;;9.40;;
7432;SDS011;32233;49.500;7.764;2023-01-24T13:36:19;16.50;;;8.93;;
7432;SDS011;32233;49.500;7.764;2023-01-24T13:38:53;14.57;;;9.27;;
7432;SDS011;32233;49.500;7.764;2023-01-24T13:51:56;14.23;;;8.87;;
7432;SDS011;32233;49.500;7.764;2023-01-24T13:57:11;16.77;;;9.53;;
7432;SDS011;32233;49.500;7.764;2023-01-24T14:00:00;14.83;;;8.90;;
7432;SDS011;32233;49.500;7.764;2023-01-24T14:07:56;17.27;;;9.67;;
7432;SDS011;32233;49.500;7.764;2023-01-24T14:10:32;16.70;;;9.47;;
7432;SDS011;32233;49.500;7.764;2023-01-24T14:12:59;14.07;;;8.83;;
7432;SDS011;32233;49.500;7.764;2023-01-24T14:15:27;15.50;;;9.30;;
7432;SDS011;32233;49.500;7.764;2023-01-24T14:21:16;17.77;;;9.37;;
7432;SDS011;32233;49.500;7.764;2023-01-24T14:23:45;17.17;;;10.20;;
7432;SDS011;32233;49.500;7.764;2023-01-24T14:26:17;14.30;;;9.23;;
7432;SDS011;32233;49.500;7.764;2023-01-24T14:28:49;17.13;;;10.03;;
7432;SDS011;32233;49.500;7.764;2023-01-24T14:31:21;17.17;;;9.97;;
7432;SDS011;32233;49.500;7.764;2023-01-24T14:33:52;18.47;;;10.20;;
7432;SDS011;32233;49.500;7.764;2023-01-24T14:41:48;16.93;;;9.67;;
7432;SDS011;32233;49.500;7.764;2023-01-24T14:44:28;15.47;;;9.13;;
7432;SDS011;32233;49.500;7.764;2023-01-24T14:47:01;16.20;;;10.07;;
7432;SDS011;32233;49.500;7.764;2023-01-24T14:51:59;16.03;;;9.50;;
7432;SDS011;32233;49.500;7.764;2023-01-24T14:54:49;16.10;;;10.17;;
7432;SDS011;32233;49.500;7.764;2023-01-24T15:02:26;15.57;;;9.47;;
7432;SDS011;32233;49.500;7.764;2023-01-24T15:04:53;15.70;;;9.73;;
7432;SDS011;32233;49.500;7.764;2023-01-24T15:07:20;17.03;;;10.30;;
7432;SDS011;32233;49.500;7.764;2023-01-24T15:09:48;14.77;;;9.57;;
7432;SDS011;32233;49.500;7.764;2023-01-24T15:14:59;15.83;;;9.73;;
7432;SDS011;32233;49.500;7.764;2023-01-24T15:17:28;18.00;;;10.30;;
7432;SDS011;32233;49.500;7.764;2023-01-24T15:19:57;13.77;;;9.57;;
7432;SDS011;32233;49.500;7.764;2023-01-24T15:22:26;17.03;;;10.40;;
7432;SDS011;32233;49.500;7.764;2023-01-24T15:24:57;17.30;;;10.03;;
7432;SDS011;32233;49.500;7.764;2023-01-24T15:32:48;14.30;;;9.43;;
7432;SDS011;32233;49.500;7.764;2023-01-24T15:40:47;17.40;;;10.33;;
7432;SDS011;32233;49.500;7.764;2023-01-24T15:43:16;19.20;;;11.17;;
7432;SDS011;32233;49.500;7.764;2023-01-24T15:46:06;16.37;;;9.97;;
7432;SDS011;32233;49.500;7.764;2023-01-24T15:48:59;17.10;;;9.93;;
7432;SDS011;32233;49.500;7.764;2023-01-24T15:51:35;16.53;;;9.93;;
7432;SDS011;32233;49.500;7.764;2023-01-24T15:54:11;18.43;;;10.73;;
7432;SDS011;32233;49.500;7.764;2023-01-24T15:56:38;17.07;;;9.77;;
7432;SDS011;32233;49.500;7.764;2023-01-24T15:59:18;16.60;;;10.40;;
7432;SDS011;32233;49.500;7.764;2023-01-24T16:01:46;23.87;;;14.07;;
7432;SDS011;32233;49.500;7.764;2023-01-24T16:04:20;38.77;;;21.83;;
7432;SDS011;32233;49.500;7.764;2023-01-24T16:06:49;23.33;;;15.00;;
7432;SDS011;32233;49.500;7.764;2023-01-24T16:09:16;18.53;;;11.93;;
7432;SDS011;32233;49.500;7.764;2023-01-24T16:11:43;20.57;;;13.30;;
7432;SDS011;32233;49.500;7.764;2023-01-24T16:14:15;19.77;;;12.93;;
7432;SDS011;32233;49.500;7.764;2023-01-24T16:16:46;23.53;;;12.77;;
7432;SDS011;32233;49.500;7.764;2023-01-24T16:19:15;24.97;;;14.53;;
7432;SDS011;32233;49.500;7.764;2023-01-24T16:21:44;38.30;;;24.17;;
7432;SDS011;32233;49.500;7.764;2023-01-24T16:24:11;17.13;;;11.10;;
7432;SDS011;32233;49.500;7.764;2023-01-24T16:26:41;20.60;;;13.73;;
7432;SDS011;32233;49.500;7.764;2023-01-24T16:29:12;26.70;;;20.60;;
7432;SDS011;32233;49.500;7.764;2023-01-24T16:31:40;20.87;;;14.90;;
7432;SDS011;32233;49.500;7.764;2023-01-24T16:34:07;19.80;;;12.90;;
7432;SDS011;32233;49.500;7.764;2023-01-24T16:36:34;22.63;;;15.87;;
7432;SDS011;32233;49.500;7.764;2023-01-24T16:39:02;23.53;;;14.63;;
7432;SDS011;32233;49.500;7.764;2023-01-24T16:41:29;19.17;;;11.73;;
7432;SDS011;32233;49.500;7.764;2023-01-24T16:43:57;19.57;;;11.93;;
7432;SDS011;32233;49.500;7.764;2023-01-24T16:46:23;17.77;;;11.47;;
7432;SDS011;32233;49.500;7.764;2023-01-24T16:48:50;15.97;;;10.40;;
7432;SDS011;32233;49.500;7.764;2023-01-24T16:51:18;22.13;;;13.17;;
7432;SDS011;32233;49.500;7.764;2023-01-24T16:53:45;26.93;;;16.37;;
7432;SDS011;32233;49.500;7.764;2023-01-24T16:56:12;16.70;;;11.60;;
7432;SDS011;32233;49.500;7.764;2023-01-24T16:58:38;17.03;;;12.30;;
7432;SDS011;32233;49.500;7.764;2023-01-24T17:01:08;20.87;;;12.10;;
7432;SDS011;32233;49.500;7.764;2023-01-24T17:03:36;19.37;;;13.17;;
7432;SDS011;32233;49.500;7.764;2023-01-24T17:06:06;19.57;;;12.53;;
7432;SDS011;32233;49.500;7.764;2023-01-24T17:08:34;17.90;;;10.97;;
7432;SDS011;32233;49.500;7.764;2023-01-24T17:11:05;19.33;;;13.27;;
7432;SDS011;32233;49.500;7.764;2023-01-24T17:13:33;18.93;;;11.20;;
7432;SDS011;32233;49.500;7.764;2023-01-24T17:16:04;17.73;;;10.93;;
7432;SDS011;32233;49.500;7.764;2023-01-24T17:18:33;21.30;;;13.20;;
7432;SDS011;32233;49.500;7.764;2023-01-24T17:21:01;21.23;;;13.40;;